Аэропорт: Гостомель. Киев

ICAO: UKKM

METAR:
2021-04-21 20:00:00
UKKM 212000Z AUTO 21003MPS 9999 // NCD 08/03 Q1013
METAR:
2021-04-21 11:03:00
TAF UKKM 211103Z 2112/2212 23004G09MPS 9999 BKN020 TX17/2212Z TN04/2202Z TEMPO 2112/2117 VRB12G18MPS 1000 TSRAGR SQ BKN004 BKN015CB BECMG 2118/2119 21005MPS TEMPO 2119/2206 2100 BR BKN007 TEMPO 2208/2212 VRB12G18MPS 1000 TSRAGR SQ BKN004 BKN015CB